createdAt,value
2022-12-11T00:02:27.186Z,91.5
2022-12-11T00:07:27.104Z,92.0
2022-12-11T00:12:27.102Z,92.0
2022-12-11T00:17:27.107Z,92.0
2022-12-11T00:22:27.106Z,92.0
2022-12-11T00:27:27.105Z,92.0
2022-12-11T00:32:28.839Z,92.0
2022-12-11T00:37:27.150Z,92.0
2022-12-11T00:42:27.129Z,92.0
2022-12-11T00:47:27.123Z,92.0
2022-12-11T00:52:27.164Z,92.0
2022-12-11T00:57:27.130Z,92.0
2022-12-11T01:02:27.169Z,92.0
2022-12-11T01:07:27.156Z,92.0
2022-12-11T01:12:27.134Z,92.0
2022-12-11T01:17:27.136Z,92.0
2022-12-11T01:22:27.140Z,92.0
2022-12-11T01:27:27.163Z,92.0
2022-12-11T01:32:27.143Z,92.0
2022-12-11T01:37:27.147Z,92.0
2022-12-11T01:42:27.142Z,92.0
2022-12-11T01:47:27.158Z,92.5
2022-12-11T01:52:27.151Z,92.5
2022-12-11T01:57:27.402Z,92.5
2022-12-11T02:02:27.216Z,92.0
2022-12-11T02:07:27.293Z,92.5
2022-12-11T02:12:27.261Z,92.5
2022-12-11T02:17:27.168Z,92.5
2022-12-11T02:22:27.167Z,92.5
2022-12-11T02:27:27.169Z,92.5
2022-12-11T02:32:27.187Z,92.5
2022-12-11T02:37:27.168Z,92.5
2022-12-11T02:42:27.169Z,92.5
2022-12-11T02:47:27.178Z,92.5
2022-12-11T02:52:27.185Z,92.5
2022-12-11T02:57:27.191Z,92.5
2022-12-11T03:02:27.223Z,92.5
2022-12-11T03:07:27.183Z,92.5
2022-12-11T03:12:27.190Z,92.0
2022-12-11T03:17:27.188Z,92.0
2022-12-11T03:22:27.196Z,92.0
2022-12-11T03:27:27.199Z,92.0
2022-12-11T03:32:27.193Z,92.0
2022-12-11T03:37:27.201Z,92.0
2022-12-11T03:42:27.204Z,92.0
2022-12-11T03:47:27.209Z,92.0
2022-12-11T03:52:27.208Z,92.0
2022-12-11T03:57:27.220Z,92.0
2022-12-11T04:02:27.276Z,92.0
2022-12-11T04:07:27.216Z,92.0
2022-12-11T04:12:27.216Z,92.0
2022-12-11T04:17:27.219Z,92.0
2022-12-11T04:22:27.228Z,92.0
2022-12-11T04:27:27.232Z,92.0
2022-12-11T04:32:27.229Z,92.0
2022-12-11T04:37:27.231Z,92.0
2022-12-11T04:42:27.231Z,92.0
2022-12-11T04:47:27.249Z,92.0
2022-12-11T04:52:27.246Z,92.0
2022-12-11T04:57:27.297Z,91.5
2022-12-11T05:02:27.346Z,91.5
2022-12-11T05:07:27.248Z,91.5
2022-12-11T05:12:27.251Z,91.5
2022-12-11T05:17:27.242Z,91.5
2022-12-11T05:22:27.252Z,91.5
2022-12-11T05:27:27.258Z,91.5
2022-12-11T05:32:27.314Z,91.5
2022-12-11T05:37:27.259Z,91.5
2022-12-11T05:42:29.218Z,91.5
2022-12-11T05:47:27.268Z,91.5
2022-12-11T05:52:27.258Z,91.0
2022-12-11T05:57:27.263Z,91.0
2022-12-11T06:02:27.425Z,91.5
2022-12-11T06:07:27.275Z,91.0
2022-12-11T06:17:27.300Z,91.0
2022-12-11T06:22:27.343Z,91.0
2022-12-11T06:27:27.378Z,91.0
2022-12-11T06:32:27.279Z,91.0
2022-12-11T06:37:27.298Z,91.0
2022-12-11T06:42:27.388Z,91.0
2022-12-11T06:47:27.301Z,90.0
2022-12-11T06:52:27.292Z,90.0
2022-12-11T06:57:27.298Z,90.0
2022-12-11T07:02:27.375Z,90.5
2022-12-11T07:07:27.326Z,90.0
2022-12-11T07:12:27.319Z,90.0
2022-12-11T07:17:27.310Z,90.0
2022-12-11T07:22:27.311Z,89.5
2022-12-11T07:27:27.307Z,89.0
2022-12-11T07:32:27.451Z,89.0
2022-12-11T07:37:27.314Z,89.0
2022-12-11T07:42:27.320Z,89.0
2022-12-11T07:47:27.317Z,88.5
2022-12-11T07:52:27.324Z,89.0
2022-12-11T07:57:27.328Z,89.0
2022-12-11T08:02:29.239Z,89.0
2022-12-11T08:07:27.344Z,89.0
2022-12-11T08:12:27.338Z,88.5
2022-12-11T08:17:30.228Z,88.5
2022-12-11T08:22:27.341Z,88.5
2022-12-11T08:27:27.449Z,88.0
2022-12-11T08:32:27.728Z,88.0
2022-12-11T08:37:27.344Z,88.5
2022-12-11T08:42:27.361Z,88.0
2022-12-11T08:47:27.351Z,88.0
2022-12-11T08:52:27.349Z,88.0
2022-12-11T08:57:27.519Z,87.5
2022-12-11T09:02:27.538Z,87.5
2022-12-11T09:07:27.367Z,87.5
2022-12-11T09:12:27.418Z,87.0
2022-12-11T09:17:27.370Z,87.0
2022-12-11T09:22:27.367Z,87.0
2022-12-11T09:27:27.376Z,86.5
2022-12-11T09:32:27.376Z,86.5
2022-12-11T09:37:27.402Z,86.5
2022-12-11T09:42:27.379Z,86.5
2022-12-11T09:47:27.386Z,86.0
2022-12-11T09:52:27.454Z,86.5
2022-12-11T09:57:27.384Z,86.0
2022-12-11T10:02:27.439Z,86.0
2022-12-11T10:07:27.393Z,85.5
2022-12-11T10:12:27.392Z,85.5
2022-12-11T10:17:27.396Z,85.5
2022-12-11T10:22:27.398Z,85.5
2022-12-11T10:27:27.406Z,85.5
2022-12-11T10:32:27.397Z,85.5
2022-12-11T10:37:27.401Z,85.5
2022-12-11T10:42:27.408Z,85.0
2022-12-11T10:47:27.411Z,85.0
2022-12-11T10:52:27.436Z,85.0
2022-12-11T10:57:27.415Z,84.5
2022-12-11T11:02:27.479Z,84.5
2022-12-11T11:07:27.423Z,84.5
2022-12-11T11:12:27.427Z,84.0
2022-12-11T11:17:30.755Z,84.0
2022-12-11T11:22:27.431Z,84.0
2022-12-11T11:27:27.433Z,84.0
2022-12-11T11:32:27.433Z,83.5
2022-12-11T11:37:27.432Z,83.5
2022-12-11T11:42:27.437Z,83.5
2022-12-11T11:47:27.442Z,83.0
2022-12-11T11:52:27.443Z,83.0
2022-12-11T11:57:27.445Z,83.0
2022-12-11T12:02:27.496Z,83.0
2022-12-11T12:07:27.445Z,83.5
2022-12-11T12:12:31.017Z,83.0
2022-12-11T12:17:27.506Z,83.0
2022-12-11T12:22:27.457Z,83.0
2022-12-11T12:27:51.480Z,83.0
2022-12-11T12:32:27.462Z,82.5
2022-12-11T12:37:27.465Z,82.5
2022-12-11T12:42:27.467Z,82.5
2022-12-11T12:47:27.460Z,82.0
2022-12-11T12:52:27.492Z,83.0
2022-12-11T12:57:27.474Z,83.0
2022-12-11T13:02:27.527Z,83.5
2022-12-11T13:07:27.477Z,83.0
2022-12-11T13:12:27.485Z,81.0
2022-12-11T13:17:27.479Z,81.0
2022-12-11T13:22:27.481Z,80.0
2022-12-11T13:27:27.484Z,81.5
2022-12-11T13:32:27.486Z,82.0
2022-12-11T13:37:27.497Z,82.0
2022-12-11T13:42:27.495Z,82.0
2022-12-11T13:47:27.501Z,82.0
2022-12-11T13:52:27.535Z,81.5
2022-12-11T13:57:27.502Z,80.5
2022-12-11T14:02:27.590Z,81.5
2022-12-11T14:07:27.520Z,81.5
2022-12-11T14:12:27.513Z,81.5
2022-12-11T14:17:27.525Z,81.5
2022-12-11T14:22:27.517Z,81.5
2022-12-11T14:27:27.515Z,81.5
2022-12-11T14:32:27.512Z,81.0
2022-12-11T14:37:27.520Z,81.5
2022-12-11T14:42:27.518Z,81.0
2022-12-11T14:47:27.514Z,81.5
2022-12-11T14:52:27.523Z,81.5
2022-12-11T14:57:27.529Z,82.0
2022-12-11T15:02:27.663Z,82.0
2022-12-11T15:07:27.532Z,82.0
2022-12-11T15:12:27.533Z,82.0
2022-12-11T15:17:27.539Z,82.0
2022-12-11T15:22:27.533Z,82.0
2022-12-11T15:27:27.544Z,82.0
2022-12-11T15:32:27.538Z,82.0
2022-12-11T15:37:27.538Z,82.0
2022-12-11T15:42:27.553Z,82.0
2022-12-11T15:47:27.555Z,82.0
2022-12-11T15:52:27.555Z,82.0
2022-12-11T15:57:27.555Z,82.0
2022-12-11T16:02:27.609Z,82.0
2022-12-11T16:07:27.562Z,82.5
2022-12-11T16:12:27.563Z,82.5
2022-12-11T16:17:27.560Z,82.5
2022-12-11T16:22:27.578Z,82.5
2022-12-11T16:27:27.578Z,82.5
2022-12-11T16:32:27.570Z,82.5
2022-12-11T16:37:27.584Z,82.5
2022-12-11T16:42:27.576Z,82.5
2022-12-11T16:47:27.574Z,82.5
2022-12-11T16:52:27.597Z,82.5
2022-12-11T16:57:27.812Z,82.5
2022-12-11T17:02:27.785Z,82.0
2022-12-11T17:07:27.588Z,82.0
2022-12-11T17:12:27.591Z,82.0
2022-12-11T17:17:27.588Z,82.0
2022-12-11T17:22:27.597Z,82.0
2022-12-11T17:27:27.598Z,81.5
2022-12-11T17:32:27.600Z,82.0
2022-12-11T17:37:27.600Z,82.0
2022-12-11T17:42:27.604Z,82.0
2022-12-11T17:47:27.599Z,82.5
2022-12-11T17:52:32.349Z,82.5
2022-12-11T17:57:27.611Z,82.5
2022-12-11T18:02:27.610Z,82.5
2022-12-11T18:07:27.611Z,82.5
2022-12-11T18:12:27.610Z,83.0
2022-12-11T18:17:27.635Z,83.0
2022-12-11T18:22:27.664Z,83.0
2022-12-11T18:27:27.620Z,83.0
2022-12-11T18:32:27.630Z,82.5
2022-12-11T18:37:28.130Z,82.5
2022-12-11T18:42:33.349Z,82.5
2022-12-11T18:47:27.631Z,82.5
2022-12-11T18:52:27.635Z,82.5
2022-12-11T18:57:27.637Z,82.5
2022-12-11T19:02:27.683Z,82.5
2022-12-11T19:07:27.775Z,82.5
2022-12-11T19:12:27.642Z,82.5
2022-12-11T19:17:27.649Z,82.5
2022-12-11T19:22:27.648Z,82.5
2022-12-11T19:27:27.647Z,82.5
2022-12-11T19:32:31.977Z,82.5
2022-12-11T19:37:27.662Z,82.0
2022-12-11T19:42:27.662Z,82.5
2022-12-11T19:47:27.663Z,82.5
2022-12-11T19:52:27.658Z,82.0
2022-12-11T19:57:27.666Z,82.0
2022-12-11T20:02:27.846Z,82.0
2022-12-11T20:07:30.698Z,82.0
2022-12-11T20:12:27.671Z,82.0
2022-12-11T20:17:27.728Z,82.0
2022-12-11T20:22:27.678Z,82.0
2022-12-11T20:27:27.676Z,82.0
2022-12-11T20:32:27.680Z,82.0
2022-12-11T20:37:27.686Z,82.0
2022-12-11T20:42:27.703Z,82.0
2022-12-11T20:47:27.682Z,82.0
2022-12-11T20:52:27.702Z,82.0
2022-12-11T20:57:27.693Z,81.5
2022-12-11T21:02:27.767Z,81.5
2022-12-11T21:07:27.699Z,81.5
2022-12-11T21:12:31.330Z,81.5
2022-12-11T21:17:27.703Z,81.0
2022-12-11T21:22:27.734Z,81.0
2022-12-11T21:27:27.709Z,81.5
2022-12-11T21:32:27.708Z,81.0
2022-12-11T21:37:27.715Z,81.5
2022-12-11T21:42:27.709Z,81.5
2022-12-11T21:47:27.715Z,81.5
2022-12-11T21:52:27.733Z,81.5
2022-12-11T21:57:27.717Z,80.5
2022-12-11T22:02:27.772Z,80.5
2022-12-11T22:07:27.776Z,80.0
2022-12-11T22:12:27.721Z,80.5
2022-12-11T22:17:27.730Z,80.5
2022-12-11T22:22:27.733Z,81.0
2022-12-11T22:27:27.741Z,80.5
2022-12-11T22:32:27.748Z,80.5
2022-12-11T22:37:27.756Z,80.5
2022-12-11T22:42:27.745Z,80.5
2022-12-11T22:47:27.743Z,81.0
2022-12-11T22:52:27.748Z,80.5
2022-12-11T22:57:27.762Z,80.5
2022-12-11T23:02:27.866Z,80.5
2022-12-11T23:07:27.813Z,81.0
2022-12-11T23:12:27.753Z,81.0
2022-12-11T23:17:27.757Z,81.0
2022-12-11T23:22:27.763Z,81.0
2022-12-11T23:27:27.765Z,81.0
2022-12-11T23:32:27.769Z,80.5
2022-12-11T23:37:27.769Z,80.0
2022-12-11T23:42:27.770Z,80.0
2022-12-11T23:47:27.771Z,80.5
2022-12-11T23:52:27.774Z,80.5
2022-12-11T23:57:27.772Z,80.5
